»·PEaware :: N13C L45-KSNA

N13C :: L45-KSNA

FLIGHT INFORMATION

Flight Status: Arrived
Operator: Privately registered:
United States
More flights under this callsign
Pilot: Alec D. (17934)
Aircraft: BEECH AIRCRAFT BONANZA
(BE35)
More flights by this aircraft type
Origin: L45 Bakersfield Mun
United States
Destination: KSNA John Wayne-Orange Co
United States
More flights between these airports :: More routes between these airports
Route: LHS V459 SLI
File this flight plan on PilotEdge
Remarks:
Altitude:
(Current/Filed)
9,000ft
Speed:
(Current/Filed)
160kts
Departed: 21-Apr-20 10:40 AM
Arrived: 21-Apr-20 11:28 AM
Distance/Time
Traveled:
114nm/0:48
Distance/Time
To Go:
Arrived

Flight Plot

Page will automatically refresh every two minutes.

Flight plan parsing failed; only flown route is shown


Map Options




Map Legend


Flown Route
Filed Route
Departure Airport
Arrival Airport
Navaid (VOR, NDB)
Fix

Horizontal Profiles

Position Reports

Time Latitude Longitude Heading Altitude Ground
Speed
21-Apr-20 10:28 35.325497 -118.997367 267 379ft 0kts
21-Apr-20 10:29 35.325497 -118.997367 267 379ft 0kts
21-Apr-20 10:30 35.325497 -118.997367 267 379ft 0kts
21-Apr-20 10:31 35.325497 -118.997374 267 379ft 0kts
21-Apr-20 10:32 35.325497 -118.997381 267 379ft 0kts
21-Apr-20 10:33 35.325497 -118.997388 267 379ft 0kts
21-Apr-20 10:34 35.325221 -118.996792 174 379ft 6kts
21-Apr-20 10:35 35.320497 -118.996270 174 379ft 19kts
21-Apr-20 10:36 35.319412 -118.996411 90 379ft 0kts
21-Apr-20 10:37 35.319412 -118.996401 90 379ft 0kts
21-Apr-20 10:38 35.319414 -118.996276 88 379ft 3kts
21-Apr-20 10:39 35.327474 -118.996258 352 424ft 90kts
21-Apr-20 10:40 35.331361 -119.010751 182 1522ft 123kts
21-Apr-20 10:41 35.299136 -119.000785 141 2592ft 121kts
21-Apr-20 10:42 35.269306 -118.974630 142 3003ft 147kts
21-Apr-20 10:43 35.234925 -118.950721 150 3816ft 130kts
21-Apr-20 10:44 35.203546 -118.929487 148 4875ft 128kts
21-Apr-20 10:45 35.172060 -118.908048 148 5891ft 130kts
21-Apr-20 10:46 35.140502 -118.886537 148 6861ft 130kts
21-Apr-20 10:47 35.108868 -118.865017 148 7776ft 129kts
21-Apr-20 10:48 35.077636 -118.843776 147 8632ft 128kts
21-Apr-20 10:49 35.044033 -118.820902 148 8984ft 156kts
21-Apr-20 10:50 35.004434 -118.794051 148 8984ft 167kts
21-Apr-20 10:51 34.963295 -118.766163 148 8979ft 170kts
21-Apr-20 10:52 34.921746 -118.738004 148 8969ft 170kts
21-Apr-20 10:53 34.880774 -118.710241 148 9050ft 167kts
21-Apr-20 10:54 34.839854 -118.682617 148 9053ft 169kts
21-Apr-20 10:55 34.798445 -118.654673 148 9054ft 170kts
21-Apr-20 10:56 34.756415 -118.626373 148 9053ft 172kts
21-Apr-20 10:57 34.713542 -118.597438 148 9046ft 175kts
21-Apr-20 10:58 34.671505 -118.569594 151 9036ft 171kts
21-Apr-20 10:59 34.628529 -118.544809 152 9027ft 171kts
21-Apr-20 11:00 34.584142 -118.518915 152 9016ft 175kts
21-Apr-20 11:01 34.540458 -118.493392 152 9014ft 171kts
21-Apr-20 11:02 34.497055 -118.467982 152 8998ft 172kts
21-Apr-20 11:03 34.454372 -118.443054 152 8997ft 169kts
21-Apr-20 11:05 34.412132 -118.418403 151 8986ft 168kts
21-Apr-20 11:06 34.368053 -118.392717 152 8979ft 174kts
21-Apr-20 11:07 34.325029 -118.367674 151 8977ft 169kts
21-Apr-20 11:08 34.282939 -118.343195 152 9013ft 166kts
21-Apr-20 11:09 34.238992 -118.317664 152 9006ft 174kts
21-Apr-20 11:10 34.194093 -118.291620 151 9003ft 175kts
21-Apr-20 11:11 34.151167 -118.266757 152 8997ft 168kts
21-Apr-20 11:12 34.109100 -118.242405 151 8994ft 167kts
21-Apr-20 11:13 34.067428 -118.218300 151 9010ft 165kts
21-Apr-20 11:14 34.025127 -118.193861 152 9010ft 176kts
21-Apr-20 11:15 33.979528 -118.167528 152 8495ft 187kts
21-Apr-20 11:16 33.932452 -118.140602 152 7742ft 186kts
21-Apr-20 11:17 33.886284 -118.113261 153 6782ft 183kts
21-Apr-20 11:18 33.851621 -118.075345 91 5989ft 175kts
21-Apr-20 11:19 33.846202 -118.017315 94 5029ft 169kts
21-Apr-20 11:20 33.841870 -117.961868 95 4233ft 165kts
21-Apr-20 11:21 33.838627 -117.910456 94 4019ft 143kts
21-Apr-20 11:22 33.832004 -117.866204 142 4023ft 137kts
21-Apr-20 11:23 33.792912 -117.847717 149 3194ft 157kts
21-Apr-20 11:23 33.761085 -117.827163 172 2165ft 153kts
21-Apr-20 11:24 33.722920 -117.839110 208 1092ft 116kts
21-Apr-20 11:26 33.696916 -117.855339 206 431ft 75kts
21-Apr-20 11:27 33.678680 -117.866945 205 62ft 64kts
21-Apr-20 11:27 33.674772 -117.868725 162 59ft 0kts
21-Apr-20 11:28 33.674293 -117.868368 123 59ft 8kts
21-Apr-20 11:30 33.672395 -117.867893 225 59ft 10kts
21-Apr-20 11:30 33.670486 -117.869904 220 59ft 16kts
21-Apr-20 11:31 33.667926 -117.871514 35 59ft 2kts
21-Apr-20 11:32 33.667931 -117.871511 34 59ft 0kts

Navigation Log

Ident Type
Flight plan parsing failed, navigation log unavailable